sensor_id;sensor_type;location;lat;lon;timestamp;P1;durP1;ratioP1;P2;durP2;ratioP2
23449;SDS011;11897;45.438;12.128;2022-10-16T00:01:53;7.17;;;4.30;;
23449;SDS011;11897;45.438;12.128;2022-10-16T00:04:22;9.47;;;4.53;;
23449;SDS011;11897;45.438;12.128;2022-10-16T00:06:48;8.07;;;4.07;;
23449;SDS011;11897;45.438;12.128;2022-10-16T00:09:15;9.27;;;3.90;;
23449;SDS011;11897;45.438;12.128;2022-10-16T00:11:42;11.23;;;3.97;;
23449;SDS011;11897;45.438;12.128;2022-10-16T00:14:11;11.13;;;4.70;;
23449;SDS011;11897;45.438;12.128;2022-10-16T00:16:38;9.37;;;5.00;;
23449;SDS011;11897;45.438;12.128;2022-10-16T00:19:04;8.10;;;3.37;;
23449;SDS011;11897;45.438;12.128;2022-10-16T00:21:33;7.27;;;2.87;;
23449;SDS011;11897;45.438;12.128;2022-10-16T00:24:00;7.30;;;3.33;;
23449;SDS011;11897;45.438;12.128;2022-10-16T00:26:28;10.67;;;4.57;;
23449;SDS011;11897;45.438;12.128;2022-10-16T00:28:55;6.50;;;3.57;;
23449;SDS011;11897;45.438;12.128;2022-10-16T00:31:23;11.57;;;3.87;;
23449;SDS011;11897;45.438;12.128;2022-10-16T00:33:50;10.20;;;4.20;;
23449;SDS011;11897;45.438;12.128;2022-10-16T00:36:18;9.17;;;3.67;;
23449;SDS011;11897;45.438;12.128;2022-10-16T00:38:46;8.37;;;3.77;;
23449;SDS011;11897;45.438;12.128;2022-10-16T00:41:13;11.03;;;5.00;;
23449;SDS011;11897;45.438;12.128;2022-10-16T00:43:41;11.17;;;4.37;;
23449;SDS011;11897;45.438;12.128;2022-10-16T00:46:10;9.77;;;3.77;;
23449;SDS011;11897;45.438;12.128;2022-10-16T00:48:38;7.40;;;3.10;;
23449;SDS011;11897;45.438;12.128;2022-10-16T00:51:06;7.40;;;3.87;;
23449;SDS011;11897;45.438;12.128;2022-10-16T00:53:33;12.33;;;3.87;;
23449;SDS011;11897;45.438;12.128;2022-10-16T00:56:04;9.57;;;3.67;;
23449;SDS011;11897;45.438;12.128;2022-10-16T00:58:31;10.50;;;4.13;;
23449;SDS011;11897;45.438;12.128;2022-10-16T01:00:58;15.03;;;4.30;;
23449;SDS011;11897;45.438;12.128;2022-10-16T01:03:26;9.37;;;3.80;;
23449;SDS011;11897;45.438;12.128;2022-10-16T01:05:56;7.10;;;3.40;;
23449;SDS011;11897;45.438;12.128;2022-10-16T01:08:26;13.30;;;4.43;;
23449;SDS011;11897;45.438;12.128;2022-10-16T01:10:57;10.03;;;4.23;;
23449;SDS011;11897;45.438;12.128;2022-10-16T01:13:27;7.37;;;3.43;;
23449;SDS011;11897;45.438;12.128;2022-10-16T01:15:56;9.97;;;4.50;;
23449;SDS011;11897;45.438;12.128;2022-10-16T01:18:28;12.70;;;4.57;;
23449;SDS011;11897;45.438;12.128;2022-10-16T01:20:58;10.57;;;5.07;;
23449;SDS011;11897;45.438;12.128;2022-10-16T01:23:29;10.47;;;4.83;;
23449;SDS011;11897;45.438;12.128;2022-10-16T01:26:09;13.53;;;5.27;;
23449;SDS011;11897;45.438;12.128;2022-10-16T01:28:41;7.33;;;3.50;;
23449;SDS011;11897;45.438;12.128;2022-10-16T01:31:11;7.37;;;4.00;;
23449;SDS011;11897;45.438;12.128;2022-10-16T01:33:44;8.50;;;3.93;;
23449;SDS011;11897;45.438;12.128;2022-10-16T01:36:13;7.10;;;4.10;;
23449;SDS011;11897;45.438;12.128;2022-10-16T01:38:41;6.60;;;3.07;;
23449;SDS011;11897;45.438;12.128;2022-10-16T01:41:10;9.03;;;4.07;;
23449;SDS011;11897;45.438;12.128;2022-10-16T01:43:38;7.10;;;3.87;;
23449;SDS011;11897;45.438;12.128;2022-10-16T01:46:07;10.90;;;4.87;;
23449;SDS011;11897;45.438;12.128;2022-10-16T01:48:35;8.73;;;4.00;;
23449;SDS011;11897;45.438;12.128;2022-10-16T01:51:03;9.57;;;3.67;;
23449;SDS011;11897;45.438;12.128;2022-10-16T01:53:30;10.53;;;3.63;;
23449;SDS011;11897;45.438;12.128;2022-10-16T01:55:59;10.00;;;3.33;;
23449;SDS011;11897;45.438;12.128;2022-10-16T01:58:27;11.03;;;2.93;;
23449;SDS011;11897;45.438;12.128;2022-10-16T02:00:55;6.47;;;2.63;;
23449;SDS011;11897;45.438;12.128;2022-10-16T02:03:24;6.03;;;3.57;;
23449;SDS011;11897;45.438;12.128;2022-10-16T02:05:51;12.83;;;4.40;;
23449;SDS011;11897;45.438;12.128;2022-10-16T02:08:19;9.37;;;3.77;;
23449;SDS011;11897;45.438;12.128;2022-10-16T02:10:46;11.13;;;4.23;;
23449;SDS011;11897;45.438;12.128;2022-10-16T02:13:13;8.03;;;3.27;;
23449;SDS011;11897;45.438;12.128;2022-10-16T02:15:42;5.67;;;2.83;;
23449;SDS011;11897;45.438;12.128;2022-10-16T02:18:09;8.63;;;3.80;;
23449;SDS011;11897;45.438;12.128;2022-10-16T02:20:40;8.40;;;3.73;;
23449;SDS011;11897;45.438;12.128;2022-10-16T02:23:09;7.33;;;3.43;;
23449;SDS011;11897;45.438;12.128;2022-10-16T02:25:40;12.73;;;4.07;;
23449;SDS011;11897;45.438;12.128;2022-10-16T02:28:09;10.63;;;4.27;;
23449;SDS011;11897;45.438;12.128;2022-10-16T02:30:39;8.37;;;3.17;;
23449;SDS011;11897;45.438;12.128;2022-10-16T02:33:09;7.57;;;3.60;;
23449;SDS011;11897;45.438;12.128;2022-10-16T02:35:36;7.67;;;3.43;;
23449;SDS011;11897;45.438;12.128;2022-10-16T02:38:04;9.20;;;4.43;;
23449;SDS011;11897;45.438;12.128;2022-10-16T02:40:32;15.27;;;4.87;;
23449;SDS011;11897;45.438;12.128;2022-10-16T02:42:59;10.33;;;4.57;;
23449;SDS011;11897;45.438;12.128;2022-10-16T02:45:27;11.93;;;4.80;;
23449;SDS011;11897;45.438;12.128;2022-10-16T02:47:54;9.43;;;4.17;;
23449;SDS011;11897;45.438;12.128;2022-10-16T02:50:21;11.73;;;4.63;;
23449;SDS011;11897;45.438;12.128;2022-10-16T02:52:50;10.53;;;4.40;;
23449;SDS011;11897;45.438;12.128;2022-10-16T02:55:18;16.47;;;4.60;;
23449;SDS011;11897;45.438;12.128;2022-10-16T02:57:47;9.90;;;4.47;;
23449;SDS011;11897;45.438;12.128;2022-10-16T03:00:16;11.17;;;4.67;;
23449;SDS011;11897;45.438;12.128;2022-10-16T03:02:43;9.40;;;4.43;;
23449;SDS011;11897;45.438;12.128;2022-10-16T03:05:12;7.63;;;3.90;;
23449;SDS011;11897;45.438;12.128;2022-10-16T03:07:39;10.03;;;4.07;;
23449;SDS011;11897;45.438;12.128;2022-10-16T03:10:06;8.63;;;4.20;;
23449;SDS011;11897;45.438;12.128;2022-10-16T03:12:35;9.03;;;4.73;;
23449;SDS011;11897;45.438;12.128;2022-10-16T03:15:01;8.67;;;4.27;;
23449;SDS011;11897;45.438;12.128;2022-10-16T03:17:28;9.27;;;4.70;;
23449;SDS011;11897;45.438;12.128;2022-10-16T03:19:55;10.57;;;5.17;;
23449;SDS011;11897;45.438;12.128;2022-10-16T03:22:22;12.23;;;4.70;;
23449;SDS011;11897;45.438;12.128;2022-10-16T03:24:49;12.27;;;4.27;;
23449;SDS011;11897;45.438;12.128;2022-10-16T03:27:16;14.83;;;5.20;;
23449;SDS011;11897;45.438;12.128;2022-10-16T03:29:44;12.93;;;5.13;;
23449;SDS011;11897;45.438;12.128;2022-10-16T03:32:11;10.50;;;5.10;;
23449;SDS011;11897;45.438;12.128;2022-10-16T03:34:39;10.30;;;4.23;;
23449;SDS011;11897;45.438;12.128;2022-10-16T03:37:07;9.23;;;4.17;;
23449;SDS011;11897;45.438;12.128;2022-10-16T03:39:33;15.10;;;6.00;;
23449;SDS011;11897;45.438;12.128;2022-10-16T03:42:00;10.10;;;4.87;;
23449;SDS011;11897;45.438;12.128;2022-10-16T03:44:27;8.37;;;4.27;;
23449;SDS011;11897;45.438;12.128;2022-10-16T03:46:59;13.00;;;4.43;;
23449;SDS011;11897;45.438;12.128;2022-10-16T03:49:26;13.30;;;5.30;;
23449;SDS011;11897;45.438;12.128;2022-10-16T03:51:53;11.27;;;4.57;;
23449;SDS011;11897;45.438;12.128;2022-10-16T03:54:22;9.80;;;4.77;;
23449;SDS011;11897;45.438;12.128;2022-10-16T03:56:49;9.93;;;4.73;;
23449;SDS011;11897;45.438;12.128;2022-10-16T03:59:17;13.03;;;5.03;;
23449;SDS011;11897;45.438;12.128;2022-10-16T04:01:44;8.47;;;4.83;;
23449;SDS011;11897;45.438;12.128;2022-10-16T04:04:12;14.23;;;5.63;;
23449;SDS011;11897;45.438;12.128;2022-10-16T04:06:38;12.97;;;4.73;;
23449;SDS011;11897;45.438;12.128;2022-10-16T04:09:05;14.23;;;4.67;;
23449;SDS011;11897;45.438;12.128;2022-10-16T04:11:32;11.27;;;5.40;;
23449;SDS011;11897;45.438;12.128;2022-10-16T04:13:59;11.50;;;4.33;;
23449;SDS011;11897;45.438;12.128;2022-10-16T04:16:25;10.97;;;4.93;;
23449;SDS011;11897;45.438;12.128;2022-10-16T04:18:52;10.17;;;4.60;;
23449;SDS011;11897;45.438;12.128;2022-10-16T04:21:20;13.67;;;4.53;;
23449;SDS011;11897;45.438;12.128;2022-10-16T04:23:47;15.53;;;5.83;;
23449;SDS011;11897;45.438;12.128;2022-10-16T04:26:14;14.80;;;5.90;;
23449;SDS011;11897;45.438;12.128;2022-10-16T04:28:41;10.13;;;5.13;;
23449;SDS011;11897;45.438;12.128;2022-10-16T04:31:08;14.70;;;5.57;;
23449;SDS011;11897;45.438;12.128;2022-10-16T04:33:34;13.53;;;4.53;;
23449;SDS011;11897;45.438;12.128;2022-10-16T04:36:02;15.40;;;5.73;;
23449;SDS011;11897;45.438;12.128;2022-10-16T04:38:30;12.90;;;5.43;;
23449;SDS011;11897;45.438;12.128;2022-10-16T04:40:57;11.90;;;5.57;;
23449;SDS011;11897;45.438;12.128;2022-10-16T04:43:25;15.33;;;6.30;;
23449;SDS011;11897;45.438;12.128;2022-10-16T04:45:52;17.37;;;6.47;;
23449;SDS011;11897;45.438;12.128;2022-10-16T04:48:19;12.20;;;6.63;;
23449;SDS011;11897;45.438;12.128;2022-10-16T04:50:46;12.37;;;5.27;;
23449;SDS011;11897;45.438;12.128;2022-10-16T04:53:13;11.03;;;5.17;;
23449;SDS011;11897;45.438;12.128;2022-10-16T04:55:41;11.17;;;6.17;;
23449;SDS011;11897;45.438;12.128;2022-10-16T04:58:08;19.57;;;5.23;;
23449;SDS011;11897;45.438;12.128;2022-10-16T05:00:35;11.63;;;4.73;;
23449;SDS011;11897;45.438;12.128;2022-10-16T05:03:03;16.17;;;5.10;;
23449;SDS011;11897;45.438;12.128;2022-10-16T05:05:32;15.63;;;5.57;;
23449;SDS011;11897;45.438;12.128;2022-10-16T05:08:00;19.10;;;5.87;;
23449;SDS011;11897;45.438;12.128;2022-10-16T05:10:29;11.57;;;5.73;;
23449;SDS011;11897;45.438;12.128;2022-10-16T05:12:58;15.17;;;4.93;;
23449;SDS011;11897;45.438;12.128;2022-10-16T05:15:26;17.73;;;5.90;;
23449;SDS011;11897;45.438;12.128;2022-10-16T05:17:54;15.40;;;5.83;;
23449;SDS011;11897;45.438;12.128;2022-10-16T05:20:21;12.83;;;5.63;;
23449;SDS011;11897;45.438;12.128;2022-10-16T05:22:48;12.83;;;4.23;;
23449;SDS011;11897;45.438;12.128;2022-10-16T05:25:15;11.37;;;4.60;;
23449;SDS011;11897;45.438;12.128;2022-10-16T05:27:42;11.63;;;4.73;;
23449;SDS011;11897;45.438;12.128;2022-10-16T05:30:10;15.73;;;6.07;;
23449;SDS011;11897;45.438;12.128;2022-10-16T05:32:39;13.57;;;5.53;;
23449;SDS011;11897;45.438;12.128;2022-10-16T05:35:05;10.57;;;5.33;;
23449;SDS011;11897;45.438;12.128;2022-10-16T05:37:32;15.33;;;4.60;;
23449;SDS011;11897;45.438;12.128;2022-10-16T05:39:59;15.67;;;5.53;;
23449;SDS011;11897;45.438;12.128;2022-10-16T05:42:26;11.97;;;5.33;;
23449;SDS011;11897;45.438;12.128;2022-10-16T05:44:53;14.90;;;5.27;;
23449;SDS011;11897;45.438;12.128;2022-10-16T05:47:21;11.10;;;5.37;;
23449;SDS011;11897;45.438;12.128;2022-10-16T05:49:48;12.23;;;6.57;;
23449;SDS011;11897;45.438;12.128;2022-10-16T05:52:16;8.50;;;4.63;;
23449;SDS011;11897;45.438;12.128;2022-10-16T05:54:43;11.87;;;5.57;;
23449;SDS011;11897;45.438;12.128;2022-10-16T05:57:09;11.03;;;5.33;;
23449;SDS011;11897;45.438;12.128;2022-10-16T05:59:36;10.67;;;5.17;;
23449;SDS011;11897;45.438;12.128;2022-10-16T06:02:03;10.43;;;4.27;;
23449;SDS011;11897;45.438;12.128;2022-10-16T06:04:31;11.30;;;5.47;;
23449;SDS011;11897;45.438;12.128;2022-10-16T06:06:58;10.73;;;5.33;;
23449;SDS011;11897;45.438;12.128;2022-10-16T06:09:26;10.93;;;4.73;;
23449;SDS011;11897;45.438;12.128;2022-10-16T06:11:53;10.50;;;4.93;;
23449;SDS011;11897;45.438;12.128;2022-10-16T06:14:20;14.37;;;5.17;;
23449;SDS011;11897;45.438;12.128;2022-10-16T06:16:46;9.57;;;5.07;;
23449;SDS011;11897;45.438;12.128;2022-10-16T06:19:13;10.80;;;4.17;;
23449;SDS011;11897;45.438;12.128;2022-10-16T06:21:42;13.13;;;5.33;;
23449;SDS011;11897;45.438;12.128;2022-10-16T06:24:09;10.90;;;4.77;;
23449;SDS011;11897;45.438;12.128;2022-10-16T06:26:37;11.73;;;4.57;;
23449;SDS011;11897;45.438;12.128;2022-10-16T06:29:03;10.97;;;4.57;;
23449;SDS011;11897;45.438;12.128;2022-10-16T06:31:31;9.90;;;4.13;;
23449;SDS011;11897;45.438;12.128;2022-10-16T06:33:59;11.83;;;5.00;;
23449;SDS011;11897;45.438;12.128;2022-10-16T06:36:27;12.10;;;4.77;;
23449;SDS011;11897;45.438;12.128;2022-10-16T06:38:56;15.97;;;5.20;;
23449;SDS011;11897;45.438;12.128;2022-10-16T06:41:23;11.67;;;4.87;;
23449;SDS011;11897;45.438;12.128;2022-10-16T06:43:50;9.73;;;4.27;;
23449;SDS011;11897;45.438;12.128;2022-10-16T06:46:18;14.07;;;6.07;;
23449;SDS011;11897;45.438;12.128;2022-10-16T06:48:45;12.83;;;4.97;;
23449;SDS011;11897;45.438;12.128;2022-10-16T06:51:13;8.67;;;4.50;;
23449;SDS011;11897;45.438;12.128;2022-10-16T06:53:41;11.40;;;4.53;;
23449;SDS011;11897;45.438;12.128;2022-10-16T06:56:10;10.87;;;4.37;;
23449;SDS011;11897;45.438;12.128;2022-10-16T06:58:38;9.33;;;4.53;;
23449;SDS011;11897;45.438;12.128;2022-10-16T07:01:07;10.13;;;4.47;;
23449;SDS011;11897;45.438;12.128;2022-10-16T07:03:35;9.03;;;4.40;;
23449;SDS011;11897;45.438;12.128;2022-10-16T07:06:02;10.97;;;3.83;;
23449;SDS011;11897;45.438;12.128;2022-10-16T07:08:30;11.77;;;4.23;;
23449;SDS011;11897;45.438;12.128;2022-10-16T07:10:58;10.23;;;4.93;;
23449;SDS011;11897;45.438;12.128;2022-10-16T07:13:26;11.40;;;4.77;;
23449;SDS011;11897;45.438;12.128;2022-10-16T07:15:53;11.87;;;4.47;;
23449;SDS011;11897;45.438;12.128;2022-10-16T07:18:19;6.97;;;4.13;;
23449;SDS011;11897;45.438;12.128;2022-10-16T07:20:47;11.73;;;4.27;;
23449;SDS011;11897;45.438;12.128;2022-10-16T07:23:13;11.33;;;4.80;;
23449;SDS011;11897;45.438;12.128;2022-10-16T07:25:40;9.73;;;3.97;;
23449;SDS011;11897;45.438;12.128;2022-10-16T07:28:07;7.90;;;4.03;;
23449;SDS011;11897;45.438;12.128;2022-10-16T07:30:36;12.00;;;4.77;;
23449;SDS011;11897;45.438;12.128;2022-10-16T07:33:09;10.90;;;5.07;;
23449;SDS011;11897;45.438;12.128;2022-10-16T07:35:35;10.23;;;4.37;;
23449;SDS011;11897;45.438;12.128;2022-10-16T07:38:02;8.27;;;4.47;;
23449;SDS011;11897;45.438;12.128;2022-10-16T07:40:28;12.67;;;3.90;;
23449;SDS011;11897;45.438;12.128;2022-10-16T07:42:55;8.93;;;5.00;;
23449;SDS011;11897;45.438;12.128;2022-10-16T07:45:22;9.80;;;4.40;;
23449;SDS011;11897;45.438;12.128;2022-10-16T07:47:50;8.73;;;4.53;;
23449;SDS011;11897;45.438;12.128;2022-10-16T07:50:19;11.63;;;4.50;;
23449;SDS011;11897;45.438;12.128;2022-10-16T07:52:48;7.13;;;3.30;;
23449;SDS011;11897;45.438;12.128;2022-10-16T07:55:15;7.57;;;4.03;;
23449;SDS011;11897;45.438;12.128;2022-10-16T07:57:42;11.50;;;5.17;;
23449;SDS011;11897;45.438;12.128;2022-10-16T08:00:09;10.80;;;4.13;;
23449;SDS011;11897;45.438;12.128;2022-10-16T08:02:38;13.63;;;5.73;;
23449;SDS011;11897;45.438;12.128;2022-10-16T08:05:08;10.23;;;4.50;;
23449;SDS011;11897;45.438;12.128;2022-10-16T08:07:36;10.60;;;4.43;;
23449;SDS011;11897;45.438;12.128;2022-10-16T08:10:03;14.23;;;4.80;;
23449;SDS011;11897;45.438;12.128;2022-10-16T08:12:30;13.37;;;4.67;;
23449;SDS011;11897;45.438;12.128;2022-10-16T08:14:56;9.73;;;4.90;;
23449;SDS011;11897;45.438;12.128;2022-10-16T08:17:23;10.70;;;4.73;;
23449;SDS011;11897;45.438;12.128;2022-10-16T08:19:50;8.03;;;3.83;;
23449;SDS011;11897;45.438;12.128;2022-10-16T08:22:18;9.57;;;4.23;;
23449;SDS011;11897;45.438;12.128;2022-10-16T08:24:45;10.83;;;4.47;;
23449;SDS011;11897;45.438;12.128;2022-10-16T08:27:12;8.67;;;4.20;;
23449;SDS011;11897;45.438;12.128;2022-10-16T08:29:38;11.97;;;4.60;;
23449;SDS011;11897;45.438;12.128;2022-10-16T08:32:05;9.93;;;3.40;;
23449;SDS011;11897;45.438;12.128;2022-10-16T08:34:31;6.17;;;2.93;;
23449;SDS011;11897;45.438;12.128;2022-10-16T08:36:58;9.20;;;4.30;;
23449;SDS011;11897;45.438;12.128;2022-10-16T08:39:28;7.13;;;3.60;;
23449;SDS011;11897;45.438;12.128;2022-10-16T08:42:04;5.33;;;3.87;;
23449;SDS011;11897;45.438;12.128;2022-10-16T08:44:41;9.07;;;4.17;;
23449;SDS011;11897;45.438;12.128;2022-10-16T08:47:13;8.77;;;4.37;;
23449;SDS011;11897;45.438;12.128;2022-10-16T08:49:41;9.60;;;4.53;;
23449;SDS011;11897;45.438;12.128;2022-10-16T08:52:10;8.90;;;4.07;;
23449;SDS011;11897;45.438;12.128;2022-10-16T08:54:40;7.88;;;4.40;;
23449;SDS011;11897;45.438;12.128;2022-10-16T08:57:09;8.37;;;4.30;;
23449;SDS011;11897;45.438;12.128;2022-10-16T08:59:36;7.40;;;3.90;;
23449;SDS011;11897;45.438;12.128;2022-10-16T09:02:03;10.20;;;4.57;;
23449;SDS011;11897;45.438;12.128;2022-10-16T09:07:22;7.22;;;4.07;;
23449;SDS011;11897;45.438;12.128;2022-10-16T09:10:00;7.37;;;3.87;;
23449;SDS011;11897;45.438;12.128;2022-10-16T09:12:32;9.50;;;3.93;;
23449;SDS011;11897;45.438;12.128;2022-10-16T09:15:05;10.43;;;4.63;;
23449;SDS011;11897;45.438;12.128;2022-10-16T09:17:37;8.70;;;4.53;;
23449;SDS011;11897;45.438;12.128;2022-10-16T09:22:55;8.03;;;4.37;;
23449;SDS011;11897;45.438;12.128;2022-10-16T09:25:28;7.43;;;3.77;;
23449;SDS011;11897;45.438;12.128;2022-10-16T09:27:55;5.75;;;3.78;;
23449;SDS011;11897;45.438;12.128;2022-10-16T09:30:21;7.60;;;4.72;;
23449;SDS011;11897;45.438;12.128;2022-10-16T09:32:50;6.18;;;3.67;;
23449;SDS011;11897;45.438;12.128;2022-10-16T09:35:18;9.25;;;4.32;;
23449;SDS011;11897;45.438;12.128;2022-10-16T09:37:46;6.35;;;4.60;;
23449;SDS011;11897;45.438;12.128;2022-10-16T09:40:23;10.55;;;3.88;;
23449;SDS011;11897;45.438;12.128;2022-10-16T09:42:52;7.82;;;3.78;;
23449;SDS011;11897;45.438;12.128;2022-10-16T09:45:22;10.73;;;5.35;;
23449;SDS011;11897;45.438;12.128;2022-10-16T09:47:49;6.95;;;3.85;;
23449;SDS011;11897;45.438;12.128;2022-10-16T09:50:20;5.40;;;3.67;;
23449;SDS011;11897;45.438;12.128;2022-10-16T09:52:48;8.45;;;4.32;;
23449;SDS011;11897;45.438;12.128;2022-10-16T09:55:15;7.53;;;3.85;;
23449;SDS011;11897;45.438;12.128;2022-10-16T09:57:51;8.38;;;3.78;;
23449;SDS011;11897;45.438;12.128;2022-10-16T10:00:19;6.13;;;3.75;;
23449;SDS011;11897;45.438;12.128;2022-10-16T10:02:46;10.23;;;4.05;;
23449;SDS011;11897;45.438;12.128;2022-10-16T10:05:17;6.15;;;3.60;;
23449;SDS011;11897;45.438;12.128;2022-10-16T10:07:45;9.93;;;3.60;;
23449;SDS011;11897;45.438;12.128;2022-10-16T10:10:18;8.20;;;3.63;;
23449;SDS011;11897;45.438;12.128;2022-10-16T10:12:48;7.38;;;3.90;;
23449;SDS011;11897;45.438;12.128;2022-10-16T10:15:16;6.78;;;3.28;;
23449;SDS011;11897;45.438;12.128;2022-10-16T10:17:53;8.25;;;4.65;;
23449;SDS011;11897;45.438;12.128;2022-10-16T10:20:25;8.43;;;3.25;;
23449;SDS011;11897;45.438;12.128;2022-10-16T10:22:52;6.00;;;2.83;;
23449;SDS011;11897;45.438;12.128;2022-10-16T10:25:32;6.72;;;3.45;;
23449;SDS011;11897;45.438;12.128;2022-10-16T10:28:07;7.40;;;4.20;;
23449;SDS011;11897;45.438;12.128;2022-10-16T10:30:38;8.70;;;4.10;;
23449;SDS011;11897;45.438;12.128;2022-10-16T10:33:17;9.55;;;4.93;;
23449;SDS011;11897;45.438;12.128;2022-10-16T10:35:47;5.10;;;3.63;;
23449;SDS011;11897;45.438;12.128;2022-10-16T10:38:20;6.75;;;4.25;;
23449;SDS011;11897;45.438;12.128;2022-10-16T10:40:50;7.22;;;2.92;;
23449;SDS011;11897;45.438;12.128;2022-10-16T10:43:26;5.95;;;2.75;;
23449;SDS011;11897;45.438;12.128;2022-10-16T10:45:57;5.65;;;3.53;;
23449;SDS011;11897;45.438;12.128;2022-10-16T10:48:45;7.00;;;4.57;;
23449;SDS011;11897;45.438;12.128;2022-10-16T10:51:15;7.55;;;3.88;;
23449;SDS011;11897;45.438;12.128;2022-10-16T10:53:47;7.10;;;3.40;;
23449;SDS011;11897;45.438;12.128;2022-10-16T10:56:22;6.85;;;2.67;;
23449;SDS011;11897;45.438;12.128;2022-10-16T10:59:01;5.95;;;3.00;;
23449;SDS011;11897;45.438;12.128;2022-10-16T11:01:31;5.03;;;3.33;;
23449;SDS011;11897;45.438;12.128;2022-10-16T11:04:08;6.82;;;3.20;;
23449;SDS011;11897;45.438;12.128;2022-10-16T11:06:42;7.63;;;3.78;;
23449;SDS011;11897;45.438;12.128;2022-10-16T11:09:12;5.10;;;3.08;;
23449;SDS011;11897;45.438;12.128;2022-10-16T11:11:43;8.63;;;3.92;;
23449;SDS011;11897;45.438;12.128;2022-10-16T11:14:12;5.68;;;3.55;;
23449;SDS011;11897;45.438;12.128;2022-10-16T11:16:42;4.20;;;2.85;;
23449;SDS011;11897;45.438;12.128;2022-10-16T11:19:13;4.93;;;3.50;;
23449;SDS011;11897;45.438;12.128;2022-10-16T11:21:43;11.02;;;3.33;;
23449;SDS011;11897;45.438;12.128;2022-10-16T11:24:15;6.10;;;2.97;;
23449;SDS011;11897;45.438;12.128;2022-10-16T11:26:42;6.80;;;3.60;;
23449;SDS011;11897;45.438;12.128;2022-10-16T11:29:12;5.57;;;3.83;;
23449;SDS011;11897;45.438;12.128;2022-10-16T11:31:40;8.20;;;4.22;;
23449;SDS011;11897;45.438;12.128;2022-10-16T11:34:10;6.70;;;2.38;;
23449;SDS011;11897;45.438;12.128;2022-10-16T11:36:44;6.70;;;3.20;;
23449;SDS011;11897;45.438;12.128;2022-10-16T11:39:17;4.50;;;3.38;;
23449;SDS011;11897;45.438;12.128;2022-10-16T11:41:45;6.13;;;3.42;;
23449;SDS011;11897;45.438;12.128;2022-10-16T11:44:20;4.30;;;3.05;;
23449;SDS011;11897;45.438;12.128;2022-10-16T11:46:51;5.80;;;3.55;;
23449;SDS011;11897;45.438;12.128;2022-10-16T11:49:20;6.93;;;3.20;;
23449;SDS011;11897;45.438;12.128;2022-10-16T11:51:51;4.85;;;2.63;;
23449;SDS011;11897;45.438;12.128;2022-10-16T11:54:24;4.68;;;3.08;;
23449;SDS011;11897;45.438;12.128;2022-10-16T11:56:53;4.05;;;2.97;;
23449;SDS011;11897;45.438;12.128;2022-10-16T11:59:22;7.85;;;3.45;;
23449;SDS011;11897;45.438;12.128;2022-10-16T12:01:53;5.90;;;3.50;;
23449;SDS011;11897;45.438;12.128;2022-10-16T12:04:22;5.45;;;3.35;;
23449;SDS011;11897;45.438;12.128;2022-10-16T12:06:55;4.78;;;3.10;;
23449;SDS011;11897;45.438;12.128;2022-10-16T12:09:25;5.47;;;3.13;;
23449;SDS011;11897;45.438;12.128;2022-10-16T12:11:52;5.45;;;2.95;;
23449;SDS011;11897;45.438;12.128;2022-10-16T12:14:36;5.45;;;3.17;;
23449;SDS011;11897;45.438;12.128;2022-10-16T12:17:04;7.40;;;3.10;;
23449;SDS011;11897;45.438;12.128;2022-10-16T12:19:32;5.78;;;2.90;;
23449;SDS011;11897;45.438;12.128;2022-10-16T12:22:01;7.38;;;4.00;;
23449;SDS011;11897;45.438;12.128;2022-10-16T12:24:32;6.90;;;3.70;;
23449;SDS011;11897;45.438;12.128;2022-10-16T12:26:59;10.80;;;4.22;;
23449;SDS011;11897;45.438;12.128;2022-10-16T12:29:30;7.53;;;3.28;;
23449;SDS011;11897;45.438;12.128;2022-10-16T12:31:58;7.18;;;3.05;;
23449;SDS011;11897;45.438;12.128;2022-10-16T12:34:26;5.78;;;3.70;;
23449;SDS011;11897;45.438;12.128;2022-10-16T12:36:54;5.03;;;3.33;;
23449;SDS011;11897;45.438;12.128;2022-10-16T12:39:23;6.32;;;3.50;;
23449;SDS011;11897;45.438;12.128;2022-10-16T12:42:00;4.85;;;3.20;;
23449;SDS011;11897;45.438;12.128;2022-10-16T12:44:26;3.17;;;2.53;;
23449;SDS011;11897;45.438;12.128;2022-10-16T12:46:58;5.82;;;3.03;;
23449;SDS011;11897;45.438;12.128;2022-10-16T12:49:29;6.68;;;3.45;;
23449;SDS011;11897;45.438;12.128;2022-10-16T12:51:57;7.30;;;3.47;;
23449;SDS011;11897;45.438;12.128;2022-10-16T12:54:27;6.75;;;3.42;;
23449;SDS011;11897;45.438;12.128;2022-10-16T12:56:58;5.88;;;2.95;;
23449;SDS011;11897;45.438;12.128;2022-10-16T12:59:30;6.20;;;3.03;;
23449;SDS011;11897;45.438;12.128;2022-10-16T13:02:04;3.70;;;2.67;;
23449;SDS011;11897;45.438;12.128;2022-10-16T13:04:37;4.47;;;3.22;;
23449;SDS011;11897;45.438;12.128;2022-10-16T13:07:15;4.22;;;3.13;;
23449;SDS011;11897;45.438;12.128;2022-10-16T13:09:49;7.07;;;3.10;;
23449;SDS011;11897;45.438;12.128;2022-10-16T13:12:25;4.28;;;2.50;;
23449;SDS011;11897;45.438;12.128;2022-10-16T13:14:58;4.05;;;2.63;;
23449;SDS011;11897;45.438;12.128;2022-10-16T13:17:30;5.00;;;3.33;;
23449;SDS011;11897;45.438;12.128;2022-10-16T13:20:00;4.60;;;2.75;;
23449;SDS011;11897;45.438;12.128;2022-10-16T13:22:30;3.88;;;2.42;;
23449;SDS011;11897;45.438;12.128;2022-10-16T13:25:08;6.55;;;3.53;;
23449;SDS011;11897;45.438;12.128;2022-10-16T13:27:41;6.90;;;2.60;;
23449;SDS011;11897;45.438;12.128;2022-10-16T13:30:12;6.07;;;3.50;;
23449;SDS011;11897;45.438;12.128;2022-10-16T13:32:40;6.25;;;2.95;;
23449;SDS011;11897;45.438;12.128;2022-10-16T13:35:21;7.97;;;3.40;;
23449;SDS011;11897;45.438;12.128;2022-10-16T13:37:48;6.25;;;3.42;;
23449;SDS011;11897;45.438;12.128;2022-10-16T13:40:20;7.32;;;3.55;;
23449;SDS011;11897;45.438;12.128;2022-10-16T13:42:47;4.13;;;2.92;;
23449;SDS011;11897;45.438;12.128;2022-10-16T13:45:18;5.43;;;2.90;;
23449;SDS011;11897;45.438;12.128;2022-10-16T13:47:45;6.78;;;2.90;;
23449;SDS011;11897;45.438;12.128;2022-10-16T13:50:12;6.40;;;4.00;;
23449;SDS011;11897;45.438;12.128;2022-10-16T13:52:40;7.07;;;3.88;;
23449;SDS011;11897;45.438;12.128;2022-10-16T13:55:10;3.80;;;3.15;;
23449;SDS011;11897;45.438;12.128;2022-10-16T13:57:38;4.75;;;2.70;;
23449;SDS011;11897;45.438;12.128;2022-10-16T14:00:17;7.28;;;3.55;;
23449;SDS011;11897;45.438;12.128;2022-10-16T14:02:43;4.65;;;2.63;;
23449;SDS011;11897;45.438;12.128;2022-10-16T14:05:10;3.70;;;2.40;;
23449;SDS011;11897;45.438;12.128;2022-10-16T14:07:38;5.40;;;3.63;;
23449;SDS011;11897;45.438;12.128;2022-10-16T14:10:06;4.07;;;2.75;;
23449;SDS011;11897;45.438;12.128;2022-10-16T14:12:33;4.60;;;2.92;;
23449;SDS011;11897;45.438;12.128;2022-10-16T14:15:02;4.82;;;3.17;;
23449;SDS011;11897;45.438;12.128;2022-10-16T14:17:29;4.18;;;3.05;;
23449;SDS011;11897;45.438;12.128;2022-10-16T14:19:58;7.40;;;3.70;;
23449;SDS011;11897;45.438;12.128;2022-10-16T14:22:28;4.70;;;3.08;;
23449;SDS011;11897;45.438;12.128;2022-10-16T14:24:56;4.97;;;2.33;;
23449;SDS011;11897;45.438;12.128;2022-10-16T14:27:28;7.10;;;4.32;;
23449;SDS011;11897;45.438;12.128;2022-10-16T14:30:14;9.18;;;4.13;;
23449;SDS011;11897;45.438;12.128;2022-10-16T14:32:41;6.33;;;3.67;;
23449;SDS011;11897;45.438;12.128;2022-10-16T14:35:21;6.88;;;4.05;;
23449;SDS011;11897;45.438;12.128;2022-10-16T14:37:50;11.00;;;3.33;;
23449;SDS011;11897;45.438;12.128;2022-10-16T14:40:18;5.55;;;3.33;;
23449;SDS011;11897;45.438;12.128;2022-10-16T14:42:45;5.53;;;2.65;;
23449;SDS011;11897;45.438;12.128;2022-10-16T14:45:14;6.25;;;3.35;;